Berry, Kentucky
Current Conditions -  °F | °C
As of 6:35 PM on Wednesday 22 Oct 2014 (Local Time) from KFGX Reporting Station
Overcast Overcast  
Wind Chill: 50°   Ceiling: 3000
Heat Index: 50°   Visibility: 10mi
Dew Point: 41°   Wind: 3mph
Humidity: 73%   Direction: 340°NNW
Pressure: 30.26"   Gusts: NA
Location:  38.52°N, 84.38°W
Report Text: KFGX 222235Z AUTO 34003KT 10SM OVC030 10/05 A3026 RMK AO2 T00990052
Loading
Personal Weather Stations






























Interactive Weather Map
Tropical Storm Tracking
New forecast layout! Learn more

10-Day Weather Forecast

Advertisements
Track Severe Weather on mobile